Time;durP1;ratioP1;P1;durP2;ratioP2;P2;SDS_P1;SDS_P2;PMS_P1;PMS_P2;Temp;Humidity;BMP_temperature;BMP_pressure;BME280_temperature;BME280_humidity;BME280_pressure;Samples;Min_cycle;Max_cycle;Signal;HPM_P1;HPM_P2
2023/08/03 00:00:38;;;;;;;6.68;1.30;;;15.80;99.90;;;;;;5115231;27;20078;-65
2023/08/03 00:03:05;;;;;;;4.07;1.30;;;15.80;99.90;;;;;;5118989;27;20043;-65
2023/08/03 00:05:30;;;;;;;3.40;1.40;;;15.80;99.90;;;;;;5119620;27;20120;-65
2023/08/03 00:07:56;;;;;;;4.93;1.33;;;15.80;99.90;;;;;;5119346;27;20124;-65
2023/08/03 00:10:22;;;;;;;5.78;1.98;;;15.80;99.90;;;;;;5117898;27;20039;-65
2023/08/03 00:12:49;;;;;;;3.03;1.15;;;15.80;99.90;;;;;;5116872;28;20052;-65
2023/08/03 00:15:16;;;;;;;4.03;1.05;;;15.80;99.90;;;;;;5114530;28;20035;-65
2023/08/03 00:17:42;;;;;;;3.90;1.15;;;15.80;99.90;;;;;;5119007;28;20520;-65
2023/08/03 00:20:09;;;;;;;4.20;1.23;;;15.80;99.90;;;;;;5116644;27;20105;-65
2023/08/03 00:22:35;;;;;;;3.65;1.10;;;15.80;99.90;;;;;;5119853;28;20051;-65
2023/08/03 00:25:01;;;;;;;3.72;1.15;;;15.80;99.90;;;;;;5119762;27;20034;-65
2023/08/03 00:27:27;;;;;;;3.80;1.10;;;15.80;99.90;;;;;;5119991;27;20068;-65
2023/08/03 00:29:54;;;;;;;3.47;1.30;;;15.80;99.90;;;;;;5100589;27;20039;-65
2023/08/03 00:32:20;;;;;;;2.60;1.30;;;15.80;99.90;;;;;;5112954;28;20415;-65
2023/08/03 00:34:45;;;;;;;3.05;1.13;;;15.80;99.90;;;;;;5111947;27;20092;-65
2023/08/03 00:37:12;;;;;;;4.38;0.98;;;15.80;99.90;;;;;;5114944;28;20035;-65
2023/08/03 00:39:38;;;;;;;3.38;1.10;;;15.80;99.90;;;;;;5132212;27;20089;-65
2023/08/03 00:42:06;;;;;;;2.95;0.90;;;15.80;99.90;;;;;;5131957;27;20070;-65
2023/08/03 00:44:32;;;;;;;1.33;0.80;;;15.80;99.90;;;;;;5133399;27;20366;-66
2023/08/03 00:46:58;;;;;;;5.05;0.90;;;15.80;99.90;;;;;;5124066;27;20039;-65
2023/08/03 00:49:29;;;;;;;2.67;1.05;;;15.80;99.90;;;;;;5118869;27;20401;-65
2023/08/03 00:51:56;;;;;;;3.13;1.00;;;15.80;99.90;;;;;;5117405;27;20060;-65
2023/08/03 00:54:22;;;;;;;3.00;1.27;;;15.80;99.90;;;;;;5124079;27;20042;-65
2023/08/03 00:56:47;;;;;;;1.92;0.93;;;15.80;99.90;;;;;;5118385;27;20047;-65
2023/08/03 00:59:13;;;;;;;4.95;0.90;;;15.80;99.90;;;;;;5119428;27;20106;-65
2023/08/03 01:01:40;;;;;;;2.30;0.80;;;15.70;99.90;;;;;;5115717;27;20404;-65
2023/08/03 01:04:06;;;;;;;2.85;1.10;;;15.80;99.90;;;;;;5130397;27;20031;-65
2023/08/03 01:06:32;;;;;;;2.50;0.98;;;15.80;99.90;;;;;;5132853;27;20484;-65
2023/08/03 01:08:59;;;;;;;2.22;1.00;;;15.80;99.90;;;;;;5123023;27;20041;-65
2023/08/03 01:11:26;;;;;;;1.95;0.90;;;15.80;99.90;;;;;;5124183;27;20545;-65
2023/08/03 01:13:52;;;;;;;2.28;1.02;;;15.70;99.90;;;;;;5121008;27;20042;-65
2023/08/03 01:16:18;;;;;;;3.05;0.80;;;15.70;99.90;;;;;;5142861;27;20047;-65
2023/08/03 01:18:45;;;;;;;2.00;0.85;;;15.70;99.90;;;;;;5110867;27;20038;-66
2023/08/03 01:21:11;;;;;;;3.20;0.80;;;15.70;99.90;;;;;;5120231;27;20463;-65
2023/08/03 01:23:37;;;;;;;1.98;0.80;;;15.70;99.90;;;;;;5121893;27;20405;-65
2023/08/03 01:26:03;;;;;;;2.83;0.90;;;15.70;99.90;;;;;;5130137;27;20031;-65
2023/08/03 01:28:28;;;;;;;1.23;0.65;;;15.70;99.90;;;;;;5123949;27;20439;-65
2023/08/03 01:30:54;;;;;;;1.33;0.80;;;15.70;99.90;;;;;;5129980;27;20138;-65
2023/08/03 01:33:20;;;;;;;3.10;0.90;;;15.70;99.90;;;;;;5122819;27;20049;-66
2023/08/03 01:35:45;;;;;;;2.83;0.98;;;15.80;99.90;;;;;;5129474;27;20377;-66
2023/08/03 01:38:14;;;;;;;0.70;0.70;;;15.70;99.90;;;;;;5133445;27;20103;-65
2023/08/03 01:40:41;;;;;;;0.88;0.77;;;15.70;99.90;;;;;;5128126;27;20049;-65
2023/08/03 01:43:07;;;;;;;2.28;0.90;;;15.70;99.90;;;;;;5122486;27;20038;-65
2023/08/03 01:45:32;;;;;;;3.28;1.20;;;15.70;99.90;;;;;;5132424;27;20038;-65
2023/08/03 01:47:58;;;;;;;1.23;1.08;;;15.70;99.90;;;;;;5121868;27;20045;-65
2023/08/03 01:50:24;;;;;;;1.33;1.08;;;15.70;99.90;;;;;;5122452;27;20134;-65
2023/08/03 01:52:49;;;;;;;1.85;1.13;;;15.70;99.90;;;;;;5153718;27;20043;-65
2023/08/03 01:55:15;;;;;;;1.20;1.10;;;15.70;99.90;;;;;;5127647;27;20046;-65
2023/08/03 01:57:40;;;;;;;5.30;1.70;;;15.70;99.90;;;;;;5119974;27;20409;-65
2023/08/03 02:00:08;;;;;;;2.42;1.60;;;15.70;99.90;;;;;;5131174;27;20515;-66
2023/08/03 02:02:33;;;;;;;3.78;1.58;;;15.70;99.90;;;;;;5127233;27;20030;-65
2023/08/03 02:04:59;;;;;;;3.42;1.80;;;15.70;99.90;;;;;;5126729;27;20084;-66
2023/08/03 02:07:45;;;;;;;3.45;2.17;;;15.70;99.90;;;;;;5117817;27;20039;-65
2023/08/03 02:10:12;;;;;;;3.20;1.90;;;15.70;99.90;;;;;;5126832;27;20544;-65
2023/08/03 02:12:37;;;;;;;4.05;2.10;;;15.70;99.90;;;;;;5134836;27;20069;-65
2023/08/03 02:15:04;;;;;;;2.65;2.20;;;15.70;99.90;;;;;;5126881;27;20066;-65
2023/08/03 02:17:30;;;;;;;4.28;2.55;;;15.70;99.90;;;;;;5126658;27;20401;-65
2023/08/03 02:19:56;;;;;;;6.28;2.92;;;15.70;99.90;;;;;;5117692;27;20039;-66
2023/08/03 02:22:21;;;;;;;3.83;2.97;;;15.70;99.90;;;;;;5122444;27;20047;-65
2023/08/03 02:24:47;;;;;;;4.43;3.05;;;15.70;99.90;;;;;;5130682;27;20532;-65
2023/08/03 02:27:13;;;;;;;6.60;3.40;;;15.70;99.90;;;;;;5126746;27;20401;-65
2023/08/03 02:29:38;;;;;;;6.25;3.72;;;15.70;99.90;;;;;;5129424;27;20043;-65
2023/08/03 02:32:04;;;;;;;5.05;3.50;;;15.70;99.90;;;;;;5120251;27;20055;-66
2023/08/03 02:34:30;;;;;;;7.57;3.83;;;15.70;99.90;;;;;;5132006;27;20034;-65
2023/08/03 02:36:55;;;;;;;7.75;4.13;;;15.70;99.90;;;;;;5141791;27;20091;-65
2023/08/03 02:39:21;;;;;;;8.80;4.40;;;15.80;99.90;;;;;;5127671;27;20047;-65
2023/08/03 02:41:46;;;;;;;6.63;3.95;;;15.80;99.90;;;;;;5120225;27;20064;-65
2023/08/03 02:44:12;;;;;;;5.65;4.53;;;15.80;99.90;;;;;;5124788;27;20035;-65
2023/08/03 02:46:38;;;;;;;9.57;4.05;;;15.80;99.90;;;;;;5125244;27;20129;-65
2023/08/03 02:49:03;;;;;;;9.65;4.13;;;15.80;99.90;;;;;;5119158;27;20038;-65
2023/08/03 02:51:30;;;;;;;7.47;4.20;;;15.80;99.90;;;;;;5121746;27;20042;-65
2023/08/03 02:53:56;;;;;;;9.05;4.57;;;15.80;99.90;;;;;;5123198;27;20578;-65
2023/08/03 02:56:21;;;;;;;10.43;4.68;;;15.80;99.90;;;;;;5114204;27;20069;-65
2023/08/03 02:58:47;;;;;;;13.38;4.78;;;15.80;99.90;;;;;;5128199;27;20404;-65
2023/08/03 03:01:13;;;;;;;13.18;4.50;;;15.80;99.90;;;;;;5133788;27;20030;-65
2023/08/03 03:03:38;;;;;;;12.75;4.60;;;15.80;99.90;;;;;;5122255;27;20149;-66
2023/08/03 03:06:04;;;;;;;19.13;4.78;;;15.90;99.90;;;;;;5104405;27;20494;-65
2023/08/03 03:08:31;;;;;;;10.98;3.65;;;15.90;99.90;;;;;;5122884;27;20116;-66
2023/08/03 03:10:57;;;;;;;12.25;3.95;;;15.90;99.90;;;;;;5132696;27;20513;-65
2023/08/03 03:13:23;;;;;;;14.35;3.75;;;15.90;99.90;;;;;;5130390;27;20078;-65
2023/08/03 03:15:49;;;;;;;9.85;3.38;;;16.00;99.90;;;;;;5115540;27;20121;-65
2023/08/03 03:18:14;;;;;;;16.38;3.72;;;16.00;99.90;;;;;;5116508;27;21817;-65
2023/08/03 03:20:40;;;;;;;16.67;3.33;;;16.00;99.90;;;;;;5138206;27;20076;-65
2023/08/03 03:23:06;;;;;;;12.65;3.33;;;16.00;99.90;;;;;;5130143;27;20061;-65
2023/08/03 03:25:31;;;;;;;21.70;4.05;;;16.00;99.90;;;;;;5115800;27;20061;-65
2023/08/03 03:28:04;;;;;;;16.02;3.47;;;16.00;99.90;;;;;;5116124;27;20046;-65
2023/08/03 03:30:30;;;;;;;;;;;16.00;99.90;;;;;;5130834;27;20047;-65
2023/08/03 03:32:55;;;;;;;16.75;2.88;;;16.00;99.90;;;;;;5133600;27;19929;-65
2023/08/03 03:35:21;;;;;;;17.70;3.58;;;16.00;99.90;;;;;;5119099;27;20039;-66
2023/08/03 03:37:47;;;;;;;16.17;3.00;;;16.00;99.90;;;;;;5129630;27;20385;-65
2023/08/03 03:40:12;;;;;;;13.32;2.90;;;16.00;99.90;;;;;;5124656;27;20077;-66
2023/08/03 03:42:38;;;;;;;12.82;3.00;;;15.90;99.90;;;;;;5132367;27;20041;-65
2023/08/03 03:45:04;;;;;;;14.00;2.80;;;15.90;99.90;;;;;;5122437;27;23299;-65
2023/08/03 03:47:30;;;;;;;12.50;2.83;;;15.90;99.90;;;;;;5127792;27;20034;-65
2023/08/03 03:49:55;;;;;;;15.32;2.88;;;15.90;99.90;;;;;;5118445;27;20674;-65
2023/08/03 03:52:21;;;;;;;11.38;2.30;;;15.90;99.90;;;;;;5116028;27;20039;-65
2023/08/03 03:54:47;;;;;;;15.77;2.58;;;15.80;99.90;;;;;;5129376;27;20051;-65
2023/08/03 03:57:13;;;;;;;14.07;2.28;;;15.80;99.90;;;;;;5116195;27;20038;-65
2023/08/03 03:59:38;;;;;;;15.70;2.45;;;15.80;99.90;;;;;;5121469;27;20450;-65
2023/08/03 04:02:04;;;;;;;14.85;3.10;;;15.80;99.90;;;;;;5117100;27;20047;-65
2023/08/03 04:04:30;;;;;;;11.43;2.50;;;15.80;99.90;;;;;;5116787;27;20035;-65
2023/08/03 04:06:55;;;;;;;13.48;2.50;;;15.80;99.90;;;;;;5113253;27;20027;-65
2023/08/03 04:09:21;;;;;;;12.82;2.80;;;15.70;99.90;;;;;;5123302;27;20031;-65
2023/08/03 04:11:47;;;;;;;14.30;2.85;;;15.70;99.90;;;;;;5125678;27;20050;-65
2023/08/03 04:14:12;;;;;;;16.00;2.10;;;15.70;99.90;;;;;;5121804;27;20399;-65
2023/08/03 04:16:38;;;;;;;12.55;2.33;;;15.70;99.90;;;;;;5123794;27;20043;-65
2023/08/03 04:19:03;;;;;;;14.18;2.40;;;15.70;99.90;;;;;;5121595;27;20042;-65
2023/08/03 04:21:29;;;;;;;11.60;2.70;;;15.70;99.90;;;;;;5113301;27;20134;-65
2023/08/03 04:23:55;;;;;;;10.60;2.35;;;15.70;99.90;;;;;;5114796;28;20054;-65
2023/08/03 04:26:21;;;;;;;14.43;2.30;;;15.70;99.90;;;;;;5119722;27;20043;-65
2023/08/03 04:28:46;;;;;;;13.52;2.55;;;15.70;99.90;;;;;;5098750;28;20114;-65
2023/08/03 04:31:12;;;;;;;12.80;2.25;;;15.70;99.90;;;;;;5125236;27;20493;-65
2023/08/03 04:33:37;;;;;;;10.63;2.10;;;15.70;99.90;;;;;;5119107;27;20126;-65
2023/08/03 04:36:03;;;;;;;10.38;2.13;;;15.70;99.90;;;;;;5116714;27;20478;-65
2023/08/03 04:38:29;;;;;;;16.52;3.25;;;15.70;99.90;;;;;;5123947;27;20046;-65
2023/08/03 04:40:55;;;;;;;15.50;2.72;;;15.70;99.90;;;;;;5121749;27;20039;-65
2023/08/03 04:43:20;;;;;;;15.48;2.30;;;15.70;99.90;;;;;;5132084;27;20035;-65
2023/08/03 04:45:46;;;;;;;12.23;2.20;;;15.70;99.90;;;;;;5123359;27;20027;-65
2023/08/03 04:48:12;;;;;;;12.32;2.35;;;15.70;99.90;;;;;;5139522;27;20171;-65
2023/08/03 04:50:38;;;;;;;10.95;2.42;;;15.80;99.90;;;;;;5128217;27;20046;-65
2023/08/03 04:53:03;;;;;;;13.73;3.25;;;15.80;99.90;;;;;;5119522;27;20027;-66
2023/08/03 04:55:29;;;;;;;10.80;2.47;;;15.80;99.90;;;;;;5121481;27;20492;-65
2023/08/03 04:57:55;;;;;;;10.98;2.70;;;15.80;99.90;;;;;;5116723;27;20043;-65
2023/08/03 05:00:20;;;;;;;10.88;3.03;;;15.80;99.90;;;;;;5115631;27;20039;-65
2023/08/03 05:02:46;;;;;;;17.83;3.83;;;15.90;99.90;;;;;;5122874;27;20401;-65
2023/08/03 05:05:11;;;;;;;14.93;3.70;;;15.90;99.90;;;;;;5135664;27;20061;-66
2023/08/03 05:07:37;;;;;;;11.35;3.95;;;15.90;99.90;;;;;;5131407;27;20039;-66
2023/08/03 05:10:03;;;;;;;10.93;3.72;;;15.90;99.90;;;;;;5115343;27;20660;-66
2023/08/03 05:12:28;;;;;;;13.93;3.67;;;16.00;99.90;;;;;;5127394;27;20053;-66
2023/08/03 05:14:54;;;;;;;12.27;3.88;;;16.00;99.90;;;;;;5117389;27;20054;-65
2023/08/03 05:17:20;;;;;;;9.20;3.85;;;16.00;99.90;;;;;;5098704;27;20054;-65
2023/08/03 05:19:45;;;;;;;11.68;4.57;;;16.10;99.90;;;;;;5115644;27;20088;-65
2023/08/03 05:22:11;;;;;;;11.77;4.78;;;16.10;99.90;;;;;;5123798;27;20387;-65
2023/08/03 05:24:36;;;;;;;16.65;4.65;;;16.10;99.90;;;;;;5144039;27;20538;-65
2023/08/03 05:27:02;;;;;;;13.48;4.90;;;16.20;99.90;;;;;;5116758;27;20100;-65
2023/08/03 05:29:28;;;;;;;16.63;5.25;;;16.30;99.90;;;;;;5135706;27;20085;-65
2023/08/03 05:31:54;;;;;;;11.95;5.20;;;16.30;99.90;;;;;;5136049;27;20070;-66
2023/08/03 05:34:19;;;;;;;14.40;4.90;;;16.40;99.90;;;;;;5134798;27;20035;-65
2023/08/03 05:36:45;;;;;;;15.38;5.20;;;16.50;99.90;;;;;;5117065;27;20092;-65
2023/08/03 05:39:11;;;;;;;8.15;4.30;;;16.50;99.90;;;;;;5133825;27;20079;-66
2023/08/03 05:41:36;;;;;;;12.40;4.40;;;16.60;99.90;;;;;;5135850;27;20034;-65
2023/08/03 05:44:02;;;;;;;10.52;4.20;;;16.70;99.90;;;;;;5126120;27;20469;-66
2023/08/03 05:46:32;;;;;;;9.82;4.45;;;16.80;99.90;;;;;;5133084;27;20045;-65
2023/08/03 05:48:58;;;;;;;11.18;4.35;;;16.90;99.90;;;;;;5114874;27;20031;-65
2023/08/03 05:51:27;;;;;;;11.75;3.85;;;17.00;99.90;;;;;;5121109;27;20035;-66
2023/08/03 05:53:56;;;;;;;7.22;3.67;;;17.10;99.90;;;;;;5115011;27;20035;-65
2023/08/03 05:56:24;;;;;;;8.27;3.50;;;17.20;99.90;;;;;;5116089;27;20497;-65
2023/08/03 05:58:50;;;;;;;9.48;3.40;;;17.20;99.90;;;;;;5133305;27;20484;-65
2023/08/03 06:01:20;;;;;;;8.38;3.92;;;17.20;99.90;;;;;;5132782;27;20043;-65
2023/08/03 06:03:47;;;;;;;11.80;3.70;;;17.20;99.90;;;;;;5124639;27;20078;-65
2023/08/03 06:06:17;;;;;;;8.60;3.47;;;17.30;99.90;;;;;;5113378;27;20039;-66
2023/08/03 06:08:48;;;;;;;12.98;3.70;;;17.30;99.90;;;;;;5097502;27;20051;-65
2023/08/03 06:11:16;;;;;;;6.63;3.10;;;17.20;99.90;;;;;;5114983;27;20039;-65
2023/08/03 06:13:42;;;;;;;9.20;3.67;;;17.20;99.90;;;;;;5115093;27;20130;-66
2023/08/03 06:16:10;;;;;;;7.10;3.35;;;17.20;99.90;;;;;;5115171;27;20114;-66
2023/08/03 06:18:48;;;;;;;6.15;3.20;;;17.20;99.90;;;;;;5114854;27;20042;-65
2023/08/03 06:21:16;;;;;;;13.48;4.13;;;17.20;99.90;;;;;;5111338;28;20123;-65
2023/08/03 06:23:45;;;;;;;8.88;3.60;;;17.20;99.90;;;;;;5128082;27;20053;-65
2023/08/03 06:26:14;;;;;;;9.70;3.75;;;17.20;99.90;;;;;;5094403;28;20048;-66
2023/08/03 06:28:40;;;;;;;10.98;3.72;;;17.30;99.90;;;;;;5110974;27;20035;-65
2023/08/03 06:31:14;;;;;;;11.63;4.15;;;17.30;99.90;;;;;;5095866;28;20103;-65
2023/08/03 06:33:42;;;;;;;10.38;3.30;;;17.40;99.90;;;;;;5110989;28;20051;-65
2023/08/03 06:36:10;;;;;;;10.70;3.58;;;17.50;99.90;;;;;;5112311;28;20060;-65
2023/08/03 06:38:36;;;;;;;9.95;3.97;;;17.50;99.90;;;;;;5123357;27;20043;-65
2023/08/03 06:41:02;;;;;;;8.40;3.83;;;17.50;99.90;;;;;;5110636;28;20107;-66
2023/08/03 06:43:28;;;;;;;11.40;3.70;;;17.50;99.90;;;;;;5110170;28;20043;-66
2023/08/03 06:45:54;;;;;;;13.27;3.60;;;17.50;99.90;;;;;;5110522;28;20040;-65
2023/08/03 06:48:20;;;;;;;7.53;4.00;;;17.50;99.90;;;;;;5112345;27;20386;-66
2023/08/03 06:50:45;;;;;;;9.68;3.10;;;17.50;99.90;;;;;;5112154;27;20024;-66
2023/08/03 06:53:12;;;;;;;9.90;3.30;;;17.50;99.90;;;;;;5110726;28;20163;-66
2023/08/03 06:55:38;;;;;;;8.68;3.63;;;17.50;99.90;;;;;;5110459;28;20085;-66
2023/08/03 06:58:04;;;;;;;12.48;4.07;;;17.50;99.90;;;;;;5110409;28;20035;-66
2023/08/03 07:00:29;;;;;;;10.45;3.70;;;17.40;99.90;;;;;;5110712;27;20417;-66
2023/08/03 07:02:55;;;;;;;6.30;3.15;;;17.40;99.90;;;;;;5110375;28;20042;-66
2023/08/03 07:05:21;;;;;;;10.50;3.50;;;17.30;99.90;;;;;;5110488;28;20098;-66
2023/08/03 07:07:47;;;;;;;12.13;3.45;;;17.30;99.90;;;;;;5110440;28;20079;-65
2023/08/03 07:10:12;;;;;;;10.55;3.42;;;17.30;99.90;;;;;;5110637;28;20416;-66
2023/08/03 07:12:38;;;;;;;10.80;3.97;;;17.60;99.90;;;;;;5110741;28;20401;-66
2023/08/03 07:15:05;;;;;;;9.25;2.40;;;18.00;99.90;;;;;;5111771;28;20035;-66
2023/08/03 07:17:31;;;;;;;6.70;2.50;;;18.20;99.90;;;;;;5110316;28;20104;-65
2023/08/03 07:19:57;;;;;;;6.05;2.10;;;18.20;99.90;;;;;;5110323;28;20039;-66
2023/08/03 07:22:23;;;;;;;7.72;2.20;;;18.20;99.90;;;;;;5109906;28;20051;-66
2023/08/03 07:24:49;;;;;;;5.25;2.45;;;18.30;99.90;;;;;;5110425;28;20183;-66
2023/08/03 07:27:15;;;;;;;8.93;2.00;;;18.20;99.90;;;;;;5093419;28;20118;-65
2023/08/03 07:29:42;;;;;;;9.80;2.30;;;18.10;99.90;;;;;;5110276;28;20562;-66
2023/08/03 07:32:08;;;;;;;9.45;2.20;;;18.00;99.90;;;;;;5110113;28;20148;-65
2023/08/03 07:34:34;;;;;;;8.23;2.30;;;18.00;99.90;;;;;;5123166;27;20389;-65
2023/08/03 07:37:01;;;;;;;5.28;2.10;;;17.80;99.90;;;;;;5130670;27;20039;-65
2023/08/03 07:39:27;;;;;;;5.63;1.85;;;17.90;99.90;;;;;;5130358;27;20039;-66
2023/08/03 07:41:52;;;;;;;5.65;1.30;;;18.20;99.90;;;;;;5130630;27;20500;-65
2023/08/03 07:44:18;;;;;;;8.27;1.60;;;18.40;99.90;;;;;;5130628;27;20126;-66
2023/08/03 07:46:45;;;;;;;10.90;2.10;;;18.40;99.90;;;;;;5130550;27;20043;-65
2023/08/03 07:49:11;;;;;;;5.97;1.73;;;18.40;99.90;;;;;;5130554;27;20436;-66
2023/08/03 07:51:36;;;;;;;9.90;1.58;;;18.30;99.90;;;;;;5130587;27;20067;-66
2023/08/03 07:54:02;;;;;;;6.43;1.70;;;18.30;99.90;;;;;;5130729;27;20046;-66
2023/08/03 07:56:28;;;;;;;5.70;1.45;;;18.50;99.90;;;;;;5118628;27;20050;-66
2023/08/03 07:58:54;;;;;;;6.50;1.23;;;18.50;99.90;;;;;;5109782;28;20095;-66
2023/08/03 08:01:20;;;;;;;5.18;1.52;;;18.60;99.90;;;;;;5092549;28;20055;-66
2023/08/03 08:03:46;;;;;;;9.45;2.22;;;18.90;99.90;;;;;;5109719;28;20046;-66
2023/08/03 08:06:14;;;;;;;6.85;1.10;;;19.10;99.90;;;;;;5092890;28;20087;-66
2023/08/03 08:08:40;;;;;;;5.32;1.27;;;19.30;99.90;;;;;;5109874;28;20054;-66
2023/08/03 08:11:07;;;;;;;6.03;1.17;;;19.50;99.90;;;;;;5109647;28;20044;-65
2023/08/03 08:13:33;;;;;;;3.78;0.90;;;19.60;99.90;;;;;;5109402;28;20047;-66
2023/08/03 08:16:05;;;;;;;7.82;1.35;;;19.80;99.90;;;;;;5109523;28;20039;-66
2023/08/03 08:18:32;;;;;;;6.15;1.30;;;19.90;99.90;;;;;;5108733;28;20442;-66
2023/08/03 08:21:02;;;;;;;2.72;1.10;;;19.90;99.90;;;;;;5109149;28;20168;-66
2023/08/03 08:23:28;;;;;;;3.92;1.27;;;19.90;99.90;;;;;;5109909;28;20040;-66
2023/08/03 08:25:54;;;;;;;4.97;1.05;;;19.80;99.90;;;;;;5109429;28;20046;-66
2023/08/03 08:28:20;;;;;;;8.32;1.42;;;19.70;99.90;;;;;;5109419;28;20048;-66
2023/08/03 08:30:46;;;;;;;4.55;1.08;;;19.80;99.90;;;;;;5127711;28;20126;-65
2023/08/03 08:33:15;;;;;;;5.28;1.10;;;20.10;99.90;;;;;;5129762;28;20035;-66
2023/08/03 08:35:41;;;;;;;5.18;1.33;;;20.10;99.90;;;;;;5129380;28;20050;-65
2023/08/03 08:38:09;;;;;;;4.55;1.30;;;19.90;99.90;;;;;;5126910;28;20031;-66
2023/08/03 08:40:39;;;;;;;5.40;1.27;;;19.60;99.90;;;;;;5109295;28;20539;-67
2023/08/03 08:43:05;;;;;;;5.55;1.20;;;19.40;99.90;;;;;;5128267;28;20047;-66
2023/08/03 08:45:32;;;;;;;7.13;1.00;;;19.20;99.90;;;;;;5130610;28;20079;-66
2023/08/03 08:47:58;;;;;;;3.92;1.80;;;19.20;99.90;;;;;;5129336;28;20027;-65
2023/08/03 08:50:24;;;;;;;2.65;0.80;;;19.40;99.90;;;;;;5122525;28;20065;-66
2023/08/03 08:52:51;;;;;;;3.35;0.88;;;19.60;99.90;;;;;;5108571;28;20051;-66
2023/08/03 08:55:25;;;;;;;4.75;1.30;;;20.00;99.90;;;;;;5108862;28;20075;-66
2023/08/03 08:57:51;;;;;;;3.10;0.90;;;20.30;99.90;;;;;;5109000;28;20061;-65
2023/08/03 09:00:19;;;;;;;3.90;1.05;;;20.50;99.90;;;;;;5109561;28;20039;-66
2023/08/03 09:02:45;;;;;;;6.45;1.08;;;20.70;99.90;;;;;;5109098;28;20371;-66
2023/08/03 09:05:17;;;;;;;5.10;0.90;;;20.70;99.90;;;;;;5128282;28;20055;-65
2023/08/03 09:07:43;;;;;;;4.00;0.73;;;20.60;99.90;;;;;;5129518;28;20039;-66
2023/08/03 09:10:09;;;;;;;2.70;0.70;;;20.40;99.90;;;;;;5129736;28;20035;-66
2023/08/03 09:12:37;;;;;;;3.90;0.80;;;20.60;99.90;;;;;;5129566;28;20494;-66
2023/08/03 09:15:03;;;;;;;4.90;1.45;;;20.80;99.90;;;;;;5129720;28;20062;-66
2023/08/03 09:17:29;;;;;;;3.03;0.70;;;20.80;99.90;;;;;;5129397;28;20027;-65
2023/08/03 09:19:55;;;;;;;3.78;0.80;;;20.50;99.90;;;;;;5129476;28;20504;-66
2023/08/03 09:22:22;;;;;;;3.60;0.80;;;20.20;99.90;;;;;;5129372;28;20405;-66
2023/08/03 09:25:05;;;;;;;3.35;0.85;;;20.00;99.90;;;;;;5108831;28;20043;-66
2023/08/03 09:27:31;;;;;;;2.78;0.65;;;20.00;99.90;;;;;;5110453;28;20040;-65
2023/08/03 09:30:01;;;;;;;4.07;0.90;;;20.30;99.90;;;;;;5109955;28;20044;-66
2023/08/03 09:32:34;;;;;;;2.45;0.70;;;20.40;99.90;;;;;;5112761;28;20047;-66
2023/08/03 09:35:16;;;;;;;4.95;0.90;;;20.10;99.90;;;;;;5112781;28;20575;-65
2023/08/03 09:37:41;;;;;;;2.23;0.67;;;19.90;99.90;;;;;;5112544;28;20553;-66
2023/08/03 09:40:08;;;;;;;4.57;0.90;;;20.00;99.90;;;;;;5112311;28;20176;-66
2023/08/03 09:42:35;;;;;;;3.58;0.77;;;20.20;99.90;;;;;;5112366;28;20084;-66
2023/08/03 09:45:02;;;;;;;2.50;0.70;;;20.60;99.90;;;;;;5112277;28;20031;-65
2023/08/03 09:47:30;;;;;;;4.47;0.90;;;20.90;99.90;;;;;;5112266;28;20031;-66
2023/08/03 09:49:56;;;;;;;3.97;0.82;;;21.10;99.90;;;;;;5111986;28;20031;-66
2023/08/03 09:52:27;;;;;;;4.30;0.98;;;21.30;99.90;;;;;;5112241;28;20039;-66
2023/08/03 09:55:06;;;;;;;3.72;0.65;;;21.30;99.90;;;;;;5112149;28;20052;-66
2023/08/03 09:57:51;;;;;;;3.97;0.90;;;21.30;99.90;;;;;;5112032;28;20071;-65
2023/08/03 10:00:19;;;;;;;5.20;1.08;;;21.10;99.90;;;;;;5111867;28;20047;-65
2023/08/03 10:02:55;;;;;;;4.25;1.00;;;21.00;99.90;;;;;;5111824;28;20036;-66
2023/08/03 10:05:22;;;;;;;4.97;1.00;;;21.20;99.90;;;;;;5112028;28;20027;-66
2023/08/03 10:08:04;;;;;;;6.25;1.20;;;21.50;99.90;;;;;;5111722;28;20051;-65
2023/08/03 10:10:35;;;;;;;5.63;1.30;;;21.90;99.90;;;;;;5112105;28;20110;-66
2023/08/03 10:13:04;;;;;;;4.13;0.93;;;22.30;99.90;;;;;;5109200;28;20055;-65
2023/08/03 10:15:31;;;;;;;3.95;0.90;;;22.50;99.90;;;;;;5111385;28;20405;-66
2023/08/03 10:17:57;;;;;;;5.30;1.13;;;22.60;99.90;;;;;;5111222;28;20040;-66
2023/08/03 10:20:24;;;;;;;5.30;1.10;;;22.70;99.90;;;;;;5113540;27;20086;-65
2023/08/03 10:23:09;;;;;;;4.45;1.10;;;22.80;99.90;;;;;;5114644;27;20088;-66
2023/08/03 10:26:00;;;;;;;3.88;1.00;;;22.70;99.90;;;;;;5114566;27;20062;-66
2023/08/03 10:28:43;;;;;;;5.47;1.52;;;22.70;99.90;;;;;;5114804;27;20039;-66
2023/08/03 10:31:11;;;;;;;5.28;1.10;;;22.50;99.90;;;;;;5114587;27;20114;-66
2023/08/03 10:33:51;;;;;;;4.65;1.23;;;22.40;99.90;;;;;;5114432;27;20047;-66
2023/08/03 10:36:29;;;;;;;5.03;1.00;;;22.60;99.90;;;;;;5114332;27;20046;-65
2023/08/03 10:39:06;;;;;;;5.68;1.35;;;22.70;99.90;;;;;;5097817;27;20046;-65
2023/08/03 10:41:40;;;;;;;3.65;1.00;;;22.90;99.90;;;;;;5115236;27;20043;-66
2023/08/03 10:44:05;;;;;;;3.47;1.00;;;22.90;99.90;;;;;;5112698;27;20031;-65
2023/08/03 10:46:35;;;;;;;3.65;1.05;;;22.70;99.90;;;;;;5113762;27;20035;-65
2023/08/03 10:49:28;;;;;;;3.63;0.82;;;22.20;99.90;;;;;;5114952;27;20381;-65
2023/08/03 10:52:12;;;;;;;;;;;22.10;99.90;;;;;;5084437;27;20043;-64
2023/08/03 10:54:38;;;;;;;3.72;0.98;;;21.90;99.90;;;;;;5114029;27;19994;-65
2023/08/03 10:57:11;;;;;;;4.15;1.00;;;22.10;99.90;;;;;;5114468;27;20126;-65
2023/08/03 10:59:41;;;;;;;3.17;0.70;;;22.00;99.90;;;;;;5114392;27;20413;-65
2023/08/03 11:02:25;;;;;;;2.38;0.70;;;21.90;99.90;;;;;;5114438;27;20088;-65
2023/08/03 11:04:52;;;;;;;3.85;0.77;;;21.80;99.90;;;;;;5113970;27;20027;-66
2023/08/03 11:07:27;;;;;;;4.75;0.90;;;21.80;99.90;;;;;;5122748;27;20099;-67
2023/08/03 11:09:53;;;;;;;3.22;0.85;;;21.80;99.90;;;;;;5153184;27;20453;-66
2023/08/03 11:12:24;;;;;;;5.47;0.85;;;22.00;99.90;;;;;;5134825;27;20038;-67
2023/08/03 11:14:54;;;;;;;3.70;0.82;;;22.00;99.90;;;;;;5114296;27;20047;-66
2023/08/03 11:17:25;;;;;;;4.05;0.85;;;21.80;99.90;;;;;;5113947;27;20095;-67
2023/08/03 11:19:52;;;;;;;1.98;0.77;;;21.90;99.90;;;;;;5113820;27;20086;-66
2023/08/03 11:22:21;;;;;;;3.15;0.88;;;22.00;99.90;;;;;;5132164;27;20097;-66
2023/08/03 11:24:48;;;;;;;2.63;0.90;;;22.00;99.90;;;;;;5113940;27;20500;-67
2023/08/03 11:27:14;;;;;;;4.18;1.00;;;22.00;99.90;;;;;;5113849;27;20039;-67
2023/08/03 11:29:40;;;;;;;5.10;1.15;;;22.30;99.90;;;;;;5113516;27;20035;-67
2023/08/03 11:32:07;;;;;;;4.95;1.00;;;22.60;99.90;;;;;;5113806;27;20061;-66
2023/08/03 11:34:33;;;;;;;4.13;1.25;;;22.50;99.90;;;;;;5113465;27;20039;-66
2023/08/03 11:36:59;;;;;;;7.60;1.42;;;22.20;99.90;;;;;;5113778;27;20039;-66
2023/08/03 11:39:24;;;;;;;5.70;1.38;;;21.80;99.90;;;;;;5113663;27;20035;-66
2023/08/03 11:41:52;;;;;;;8.18;1.38;;;21.60;99.90;;;;;;5096113;27;20413;-67
2023/08/03 11:44:22;;;;;;;6.13;1.27;;;21.40;99.90;;;;;;5132022;27;20035;-66
2023/08/03 11:46:49;;;;;;;5.75;1.30;;;21.20;99.90;;;;;;5113385;27;20042;-66
2023/08/03 11:49:16;;;;;;;6.03;1.48;;;21.10;99.90;;;;;;5113493;27;20043;-66
2023/08/03 11:51:42;;;;;;;6.43;1.45;;;21.20;99.90;;;;;;5131586;27;20070;-66
2023/08/03 11:54:09;;;;;;;8.68;2.13;;;21.20;99.90;;;;;;5112481;27;20068;-66
2023/08/03 11:56:37;;;;;;;7.65;1.80;;;21.20;99.90;;;;;;5131424;27;20129;-66
2023/08/03 11:59:09;;;;;;;7.20;1.27;;;21.20;99.90;;;;;;5113262;27;20075;-66
2023/08/03 12:01:48;;;;;;;;;;;21.10;99.90;;;;;;5113589;27;20049;-66
2023/08/03 12:04:15;;;;;;;7.93;1.90;;;21.00;99.90;;;;;;5117494;27;20001;-66
2023/08/03 12:06:50;;;;;;;5.43;1.50;;;21.00;99.90;;;;;;5112713;27;20043;-67
2023/08/03 12:09:21;;;;;;;4.47;1.20;;;21.00;99.90;;;;;;5112800;28;20041;-67
2023/08/03 12:11:47;;;;;;;5.47;1.52;;;21.20;99.90;;;;;;5131332;27;20058;-66
2023/08/03 12:14:12;;;;;;;3.92;1.02;;;21.20;99.90;;;;;;5115816;27;20049;-66
2023/08/03 12:16:39;;;;;;;4.57;1.20;;;21.40;99.90;;;;;;5133545;27;20049;-67
2023/08/03 12:19:08;;;;;;;6.22;1.20;;;21.40;99.90;;;;;;5151754;27;20117;-66
2023/08/03 12:21:37;;;;;;;6.72;1.45;;;21.30;99.90;;;;;;5124864;28;20130;-67
2023/08/03 12:24:04;;;;;;;6.53;1.33;;;21.10;99.90;;;;;;5112763;27;20037;-66
2023/08/03 12:26:30;;;;;;;4.63;1.50;;;20.80;99.90;;;;;;5113019;28;20579;-67
2023/08/03 12:28:56;;;;;;;4.00;1.13;;;20.70;99.90;;;;;;5111941;27;20050;-66
2023/08/03 12:31:23;;;;;;;7.78;1.45;;;20.50;99.90;;;;;;5131153;27;20044;-66
2023/08/03 12:33:49;;;;;;;4.03;1.48;;;20.50;99.90;;;;;;5131087;27;20078;-66
2023/08/03 12:36:15;;;;;;;3.35;1.27;;;20.50;99.90;;;;;;5111935;28;20063;-67
2023/08/03 12:38:41;;;;;;;4.30;1.20;;;20.50;99.90;;;;;;5112675;28;20035;-66
2023/08/03 12:41:07;;;;;;;5.00;1.13;;;20.50;99.90;;;;;;5114843;27;20116;-66
2023/08/03 12:43:32;;;;;;;3.25;0.70;;;20.50;99.90;;;;;;5116678;27;20035;-66
2023/08/03 12:45:59;;;;;;;4.75;1.00;;;20.60;99.90;;;;;;5151598;27;20038;-66